Список аэропортов
Фактическая погода:

21 апреля, 19:30
Температура: +14°C (+14.0*)
Ветер: восточный 1 м/с
Давление: *770 мм
Без существ. явл.
Время (МСК)Темп. СВетерВлажностьДавлениеОблачностьОсадки
15:00+17СВ, 2 м/с22%1026 гПаясно
16:00+17СВ, 2 м/с22%1026 гПаясно
17:00+16СВ, 2 м/с22%1026 гПаясно
18:00+16СВ, 3 м/с23%1026 гПаясно
19:00+15СВ, 2 м/с24%1026 гПаясно
20:00+12СВ, 2 м/с32%1027 гПаясно
21:00+9С, 2 м/с39%1027 гПаясно
22:00+7С, 1 м/с45%1028 гПаясно
23:00+6СВ, 1 м/с50%1028 гПаясно
22 апреля
00:00+4В, 1 м/с55%1028 гПаясно
01:00+3В, 1 м/с61%1029 гПаясно
02:00+2Штиль 65%1029 гПаясно
03:00+1СЗ, 1 м/с66%1029 гПаясно
04:00+1З, 1 м/с69%1029 гПаясно
05:00+1З, 1 м/с71%1030 гПаясно
06:00+1З, 1 м/с71%1030 гПаясно
07:00+3З, 2 м/с66%1030 гПаясно
08:00+6ЮЗ, 1 м/с55%1030 гПаясно
09:00+12З, 2 м/с36%1029 гПаясно
10:00+15З, 3 м/с27%1029 гПаясно
11:00+16СЗ, 2 м/с25%1029 гПаясно
12:00+17СЗ, 2 м/с24%1029 гПаясно
13:00+18СЗ, 2 м/с23%1029 гПаясно
14:00+18СЗ, 3 м/с22%1028 гПаясно
15:00+18СЗ, 3 м/с22%1028 гПаясно
16:00+18З, 3 м/с22%1027 гПаясно
17:00+18З, 4 м/с22%1027 гПаясно
18:00+17З, 4 м/с24%1027 гПаясно
19:00+16СЗ, 4 м/с27%1027 гПаясно
20:00+14СЗ, 2 м/с34%1027 гПаясно
21:00+11З, 2 м/с45%1028 гПаясно
22:00+9З, 1 м/с54%1028 гПамалооблачно
23:00+8З, 2 м/с59%1028 гПаясно
23 апреля
00:00+7З, 2 м/с66%1028 гПас прояснениями
01:00+6З, 2 м/с75%1029 гПаоблачно
02:00+5З, 2 м/с82%1029 гПас прояснениями
03:00+4ЮЗ, 2 м/с88%1029 гПаоблачно
04:00+4ЮЗ, 2 м/с87%1029 гПаоблачно
05:00+4ЮЗ, 2 м/с87%1029 гПаоблачно
06:00+4ЮЗ, 2 м/с83%1029 гПаоблачно
07:00+7З, 3 м/с70%1029 гПаоблачно
08:00+10З, 4 м/с56%1028 гПаоблачно
09:00+14З, 4 м/с45%1028 гПаоблачно
10:00+16З, 6 м/с35%1028 гПаоблачно
11:00+18З, 7 м/с31%1027 гПаоблачно
12:00+18З, 8 м/с30%1027 гПаоблачносл. дождь
13:00+18З, 8 м/с30%1027 гПаоблачносл. дождь
14:00+18З, 8 м/с30%1027 гПаоблачносл. дождь
15:00+18З, 8 м/с30%1026 гПаоблачно